createdAt,value
2023-03-17T00:00:59.786Z,99.90
2023-03-17T00:06:03.871Z,99.90
2023-03-17T00:11:10.716Z,99.90
2023-03-17T00:16:32.541Z,99.90
2023-03-17T00:21:35.685Z,99.90
2023-03-17T00:26:37.814Z,99.90
2023-03-17T00:31:39.726Z,99.90
2023-03-17T00:36:42.733Z,99.90
2023-03-17T00:41:44.607Z,99.90
2023-03-17T00:46:46.629Z,99.90
2023-03-17T00:51:50.146Z,99.90
2023-03-17T00:56:52.642Z,99.90
2023-03-17T01:01:55.319Z,99.90
2023-03-17T01:06:58.538Z,99.90
2023-03-17T01:12:00.688Z,99.90
2023-03-17T01:17:02.518Z,99.90
2023-03-17T01:22:04.568Z,99.90
2023-03-17T01:27:07.147Z,99.90
2023-03-17T01:32:08.876Z,99.90
2023-03-17T01:37:10.695Z,99.90
2023-03-17T01:42:13.657Z,99.90
2023-03-17T01:47:16.606Z,99.90
2023-03-17T01:52:21.727Z,99.90
2023-03-17T01:57:33.392Z,99.90
2023-03-17T02:02:39.281Z,99.90
2023-03-17T02:07:41.648Z,99.90
2023-03-17T02:12:45.523Z,99.90
2023-03-17T02:17:47.588Z,99.90
2023-03-17T02:22:55.534Z,99.90
2023-03-17T02:28:01.995Z,99.90
2023-03-17T02:33:03.754Z,99.90
2023-03-17T02:38:05.640Z,99.90
2023-03-17T02:43:07.400Z,99.90
2023-03-17T02:48:09.287Z,99.90
2023-03-17T02:53:11.086Z,99.90
2023-03-17T02:58:12.845Z,99.90
2023-03-17T03:03:14.556Z,99.90
2023-03-17T03:08:16.949Z,99.90
2023-03-17T03:13:18.667Z,99.90
2023-03-17T03:18:20.544Z,99.90
2023-03-17T03:23:23.439Z,99.90
2023-03-17T03:28:25.433Z,99.90
2023-03-17T03:33:27.183Z,99.90
2023-03-17T03:38:29.146Z,99.90
2023-03-17T03:43:30.957Z,99.90
2023-03-17T03:48:33.074Z,99.90
2023-03-17T03:53:34.875Z,99.90
2023-03-17T03:58:36.750Z,99.90
2023-03-17T04:03:38.923Z,99.90
2023-03-17T04:08:40.628Z,99.90
2023-03-17T04:13:42.389Z,99.90
2023-03-17T04:18:44.639Z,99.90
2023-03-17T04:23:46.564Z,99.90
2023-03-17T04:28:48.563Z,99.90
2023-03-17T04:33:50.314Z,99.90
2023-03-17T04:38:52.091Z,99.90
2023-03-17T04:43:53.865Z,99.90
2023-03-17T04:48:56.791Z,99.90
2023-03-17T04:53:58.660Z,99.90
2023-03-17T04:59:00.442Z,99.90
2023-03-17T05:04:02.216Z,99.90
2023-03-17T05:09:04.108Z,99.90
2023-03-17T05:14:06.331Z,99.90
2023-03-17T05:19:08.374Z,99.90
2023-03-17T05:24:10.339Z,99.90
2023-03-17T05:29:12.049Z,99.90
2023-03-17T05:34:13.812Z,99.90
2023-03-17T05:39:15.539Z,99.90
2023-03-17T05:44:17.377Z,99.90
2023-03-17T05:49:20.361Z,99.90
2023-03-17T05:54:23.073Z,99.90
2023-03-17T05:59:25.126Z,99.90
2023-03-17T06:04:26.906Z,99.90
2023-03-17T06:09:28.677Z,99.90
2023-03-17T06:14:30.564Z,99.90
2023-03-17T06:19:32.500Z,99.90
2023-03-17T06:24:34.457Z,99.90
2023-03-17T06:29:36.495Z,99.90
2023-03-17T06:34:38.288Z,99.90
2023-03-17T06:39:41.797Z,99.90
2023-03-17T06:44:43.489Z,99.90
2023-03-17T06:49:45.510Z,99.90
2023-03-17T06:54:47.472Z,99.90
2023-03-17T06:59:49.541Z,99.90
2023-03-17T07:04:52.085Z,99.90
2023-03-17T07:09:54.207Z,99.90
2023-03-17T07:14:56.545Z,99.90
2023-03-17T07:19:58.275Z,99.90
2023-03-17T07:25:00.060Z,99.90
2023-03-17T07:30:05.075Z,99.90
2023-03-17T07:35:07.315Z,99.90
2023-03-17T07:40:10.284Z,99.90
2023-03-17T07:45:12.871Z,99.90
2023-03-17T07:50:15.366Z,99.90
2023-03-17T07:55:17.887Z,99.90
2023-03-17T08:00:20.042Z,99.90
2023-03-17T08:05:21.806Z,99.90
2023-03-17T08:10:23.565Z,99.90
2023-03-17T08:15:25.280Z,99.90
2023-03-17T08:20:27.033Z,99.90
2023-03-17T08:25:29.558Z,99.90
2023-03-17T08:30:33.581Z,99.90
2023-03-17T08:35:37.332Z,99.90
2023-03-17T08:40:41.050Z,99.90
2023-03-17T08:45:43.282Z,99.90
2023-03-17T08:50:45.264Z,99.90
2023-03-17T08:55:47.216Z,99.30
2023-03-17T09:00:49.046Z,98.90
2023-03-17T09:05:51.423Z,98.80
2023-03-17T09:10:53.223Z,98.70
2023-03-17T09:15:56.102Z,99.50
2023-03-17T09:20:58.090Z,98.80
2023-03-17T09:26:00.793Z,98.20
2023-03-17T09:31:05.284Z,98.10
2023-03-17T09:36:07.657Z,96.90
2023-03-17T09:41:23.505Z,96.90
2023-03-17T09:46:42.447Z,97.00
2023-03-17T09:51:46.360Z,96.50
2023-03-17T09:56:52.140Z,95.90
2023-03-17T10:01:53.904Z,96.10
2023-03-17T10:07:04.566Z,95.10
2023-03-17T10:12:14.041Z,94.70
2023-03-17T10:17:21.426Z,95.20
2023-03-17T10:22:30.339Z,94.90
2023-03-17T10:27:36.550Z,94.90
2023-03-17T10:32:40.974Z,94.50
2023-03-17T10:37:44.169Z,94.10
2023-03-17T10:42:49.064Z,93.70
2023-03-17T10:47:50.933Z,93.70
2023-03-17T10:53:29.304Z,92.80
2023-03-17T10:58:36.253Z,92.90
2023-03-17T11:03:41.929Z,92.80
2023-03-17T11:08:50.830Z,92.60
2023-03-17T11:14:13.526Z,92.00
2023-03-17T11:19:18.470Z,91.50
2023-03-17T11:24:36.338Z,91.10
2023-03-17T11:29:57.262Z,91.30
2023-03-17T11:35:21.795Z,91.10
2023-03-17T11:40:38.640Z,89.50
2023-03-17T11:45:49.211Z,90.10
2023-03-17T11:50:59.209Z,90.50
2023-03-17T11:56:05.748Z,88.90
2023-03-17T12:01:12.652Z,88.60
2023-03-17T12:06:25.799Z,90.20
2023-03-17T12:11:35.013Z,90.40
2023-03-17T12:17:06.675Z,89.50
2023-03-17T12:22:22.683Z,87.50
2023-03-17T12:27:36.685Z,88.30
2023-03-17T12:33:04.617Z,88.00
2023-03-17T12:38:13.723Z,86.40
2023-03-17T12:43:35.629Z,85.90
2023-03-17T12:48:47.069Z,86.20
2023-03-17T12:53:51.138Z,85.50
2023-03-17T12:58:58.866Z,84.90
2023-03-17T13:04:18.236Z,84.40
2023-03-17T13:09:32.047Z,83.90
2023-03-17T13:14:47.334Z,83.50
2023-03-17T13:19:56.796Z,81.90
2023-03-17T13:25:15.868Z,82.20
2023-03-17T13:30:26.898Z,81.90
2023-03-17T13:35:38.716Z,81.40
2023-03-17T13:41:03.160Z,78.70
2023-03-17T13:46:24.612Z,80.50
2023-03-17T13:51:32.081Z,84.40
2023-03-17T13:56:43.698Z,86.20
2023-03-17T14:02:00.450Z,86.70
2023-03-17T14:07:09.441Z,88.00
2023-03-17T14:12:12.335Z,87.80
2023-03-17T14:17:42.280Z,87.50
2023-03-17T14:22:53.484Z,87.20
2023-03-17T14:27:57.977Z,85.80
2023-03-17T14:33:07.765Z,87.40
2023-03-17T14:38:25.940Z,87.40
2023-03-17T14:43:27.782Z,87.50
2023-03-17T14:48:41.288Z,86.90
2023-03-17T14:53:46.204Z,86.90
2023-03-17T14:58:50.941Z,88.50
2023-03-17T15:03:58.933Z,89.50
2023-03-17T15:09:34.551Z,90.00
2023-03-17T15:14:39.387Z,90.20
2023-03-17T15:19:44.258Z,90.50
2023-03-17T15:24:51.357Z,90.50
2023-03-17T15:29:53.109Z,90.50
2023-03-17T15:34:59.310Z,90.80
2023-03-17T15:40:03.403Z,91.30
2023-03-17T15:45:05.747Z,91.30
2023-03-17T15:50:14.000Z,92.90
2023-03-17T15:55:20.897Z,92.10
2023-03-17T16:00:25.028Z,92.30
2023-03-17T16:05:29.739Z,93.50
2023-03-17T16:10:33.489Z,92.50
2023-03-17T16:15:39.091Z,92.90
2023-03-17T16:20:49.277Z,93.40
2023-03-17T16:25:53.807Z,93.20
2023-03-17T16:30:57.733Z,93.40
2023-03-17T16:36:00.978Z,93.70
2023-03-17T16:41:17.246Z,94.20
2023-03-17T16:46:21.516Z,94.40
2023-03-17T16:51:24.878Z,95.30
2023-03-17T16:56:27.655Z,95.00
2023-03-17T17:01:30.075Z,95.40
2023-03-17T17:06:31.909Z,95.30
2023-03-17T17:11:33.632Z,95.20
2023-03-17T17:16:39.668Z,95.60
2023-03-17T17:21:41.428Z,96.70
2023-03-17T17:26:43.220Z,96.20
2023-03-17T17:31:45.201Z,96.70
2023-03-17T17:36:47.038Z,97.10
2023-03-17T17:41:48.855Z,96.30
2023-03-17T17:46:50.692Z,96.40
2023-03-17T17:51:52.429Z,96.20
2023-03-17T17:56:54.196Z,96.70
2023-03-17T18:01:56.303Z,97.40
2023-03-17T18:06:58.015Z,98.10
2023-03-17T18:11:59.786Z,97.60
2023-03-17T18:17:01.532Z,97.80
2023-03-17T18:22:04.448Z,98.20
2023-03-17T18:27:06.351Z,98.10
2023-03-17T18:32:08.795Z,99.10
2023-03-17T18:37:16.617Z,99.20
2023-03-17T18:42:18.405Z,98.70
2023-03-17T18:47:20.138Z,98.80
2023-03-17T18:52:21.924Z,98.90
2023-03-17T18:57:23.849Z,99.80
2023-03-17T19:02:25.721Z,99.90
2023-03-17T19:07:27.489Z,99.90
2023-03-17T19:12:30.320Z,99.90
2023-03-17T19:17:32.598Z,99.90
2023-03-17T19:22:34.871Z,99.90
2023-03-17T19:27:36.664Z,99.70
2023-03-17T19:32:38.457Z,99.40
2023-03-17T19:37:40.556Z,99.30
2023-03-17T19:42:42.385Z,99.60
2023-03-17T19:47:44.124Z,99.60
2023-03-17T19:52:46.225Z,99.00
2023-03-17T19:57:48.477Z,98.30
2023-03-17T20:02:51.075Z,98.80
2023-03-17T20:07:52.860Z,98.60
2023-03-17T20:12:54.756Z,98.70
2023-03-17T20:17:56.594Z,98.50
2023-03-17T20:22:58.324Z,98.80
2023-03-17T20:28:00.286Z,98.70
2023-03-17T20:33:04.285Z,98.70
2023-03-17T20:38:07.326Z,98.60
2023-03-17T20:43:09.649Z,98.40
2023-03-17T20:48:12.094Z,98.50
2023-03-17T20:53:13.875Z,98.40
2023-03-17T20:58:15.694Z,98.70
2023-03-17T21:03:20.841Z,98.60
2023-03-17T21:08:23.434Z,98.70
2023-03-17T21:13:25.248Z,98.70
2023-03-17T21:18:27.987Z,98.50
2023-03-17T21:23:29.719Z,98.80
2023-03-17T21:28:32.290Z,98.70
2023-03-17T21:33:34.670Z,98.60
2023-03-17T21:38:36.416Z,98.70
2023-03-17T21:43:38.359Z,98.70
2023-03-17T21:48:40.110Z,98.90
2023-03-17T21:53:41.876Z,98.80
2023-03-17T21:58:43.688Z,98.60
2023-03-17T22:03:45.603Z,99.00
2023-03-17T22:08:48.733Z,99.10
2023-03-17T22:13:50.629Z,98.80
2023-03-17T22:18:52.727Z,99.00
2023-03-17T22:23:54.769Z,99.20
2023-03-17T22:28:56.522Z,99.30
2023-03-17T22:33:59.353Z,99.80
2023-03-17T22:39:01.163Z,99.60
2023-03-17T22:44:03.453Z,99.50
2023-03-17T22:49:05.960Z,99.70
2023-03-17T22:54:08.753Z,99.80
2023-03-17T22:59:10.580Z,99.90
2023-03-17T23:04:12.509Z,99.90
2023-03-17T23:09:14.692Z,99.90
2023-03-17T23:14:16.659Z,99.90
2023-03-17T23:19:18.538Z,99.90
2023-03-17T23:24:20.320Z,99.90
2023-03-17T23:29:22.701Z,99.90
2023-03-17T23:34:25.879Z,99.90
2023-03-17T23:39:27.570Z,99.90
2023-03-17T23:44:29.946Z,99.90
2023-03-17T23:49:31.696Z,99.90
2023-03-17T23:54:33.767Z,99.90
2023-03-17T23:59:35.989Z,99.90
